createdAt,value
2016-08-10T00:00:31.271Z,0
2016-08-10T00:01:31.298Z,0
2016-08-10T00:02:32.003Z,0
2016-08-10T00:03:30.555Z,0
2016-08-10T00:04:31.998Z,0
2016-08-10T00:05:31.275Z,0
2016-08-10T00:06:32.039Z,0
2016-08-10T00:08:32.007Z,0
2016-08-10T00:09:31.988Z,0
2016-08-10T00:10:30.562Z,0
2016-08-10T00:11:30.551Z,0
2016-08-10T00:12:30.539Z,0
2016-08-10T00:13:31.992Z,0
2016-08-10T00:14:32.012Z,0
2016-08-10T00:15:31.263Z,0
2016-08-10T00:16:31.988Z,0
2016-08-10T00:17:31.992Z,0
2016-08-10T00:18:30.552Z,0
2016-08-10T00:19:31.996Z,0
2016-08-10T00:20:31.988Z,0
2016-08-10T00:21:31.270Z,0
2016-08-10T00:23:30.540Z,0
2016-08-10T00:24:31.264Z,0
2016-08-10T00:25:31.276Z,0
2016-08-10T00:26:31.976Z,0
2016-08-10T00:27:31.259Z,0
2016-08-10T00:28:31.979Z,0
2016-08-10T00:29:31.259Z,0
2016-08-10T00:30:31.983Z,0
2016-08-10T00:31:31.980Z,0
2016-08-10T00:32:31.252Z,0
2016-08-10T00:33:31.252Z,0
2016-08-10T00:34:31.983Z,0
2016-08-10T00:35:31.259Z,0
2016-08-10T00:36:30.536Z,0
2016-08-10T00:37:30.535Z,0
2016-08-10T00:38:31.252Z,0
2016-08-10T00:39:31.268Z,0
2016-08-10T00:40:31.984Z,0
2016-08-10T00:41:30.536Z,0
2016-08-10T00:42:31.964Z,0
2016-08-10T00:43:30.523Z,0
2016-08-10T00:44:31.984Z,0
2016-08-10T00:45:30.520Z,0
2016-08-10T00:46:31.968Z,0
2016-08-10T00:47:31.255Z,0
2016-08-10T00:48:31.232Z,0
2016-08-10T00:49:31.975Z,0
2016-08-10T00:50:31.252Z,0
2016-08-10T00:51:31.960Z,0
2016-08-10T00:53:31.248Z,0
2016-08-10T00:54:31.243Z,0
2016-08-10T00:55:31.241Z,0
2016-08-10T00:56:30.521Z,0
2016-08-10T00:57:31.248Z,0
2016-08-10T00:58:31.244Z,0
2016-08-10T00:59:31.956Z,0
2016-08-10T01:00:31.237Z,0
2016-08-10T01:01:31.241Z,0
2016-08-10T01:02:30.537Z,0
2016-08-10T01:03:30.517Z,0
2016-08-10T01:04:31.237Z,0
2016-08-10T01:05:30.512Z,0
2016-08-10T01:06:31.238Z,0
2016-08-10T01:07:31.236Z,0
2016-08-10T01:08:31.250Z,0
2016-08-10T01:09:31.954Z,0
2016-08-10T01:10:31.952Z,0
2016-08-10T01:11:31.949Z,0
2016-08-10T01:12:31.966Z,0
2016-08-10T01:13:31.949Z,0
2016-08-10T01:14:31.950Z,0
2016-08-10T01:15:31.218Z,0
2016-08-10T01:16:30.506Z,0
2016-08-10T01:17:31.230Z,0
2016-08-10T01:18:31.953Z,0
2016-08-10T01:19:31.226Z,0
2016-08-10T01:20:31.230Z,0
2016-08-10T01:21:30.506Z,0
2016-08-10T01:22:31.947Z,0
2016-08-10T01:23:30.494Z,0
2016-08-10T01:24:31.230Z,0
2016-08-10T01:25:31.222Z,0
2016-08-10T01:26:31.218Z,0
2016-08-10T01:27:31.222Z,0
2016-08-10T01:28:31.226Z,0
2016-08-10T01:29:31.218Z,0
2016-08-10T01:30:31.946Z,0
2016-08-10T01:31:31.221Z,0
2016-08-10T01:32:31.934Z,0
2016-08-10T01:33:31.215Z,0
2016-08-10T01:34:31.219Z,0
2016-08-10T01:35:31.215Z,0
2016-08-10T01:36:31.922Z,0
2016-08-10T01:37:31.226Z,0
2016-08-10T01:38:31.942Z,0
2016-08-10T01:39:30.491Z,0
2016-08-10T01:40:31.214Z,0
2016-08-10T01:41:30.486Z,0
2016-08-10T01:42:31.208Z,0
2016-08-10T01:43:31.933Z,0
2016-08-10T01:44:31.211Z,0
2016-08-10T01:45:31.203Z,0
2016-08-10T01:46:31.201Z,0
2016-08-10T01:47:31.927Z,20
2016-08-10T01:48:30.474Z,16
2016-08-10T01:49:31.215Z,16
2016-08-10T01:50:31.199Z,0
2016-08-10T01:51:31.914Z,0
2016-08-10T01:52:31.191Z,0
2016-08-10T01:53:31.198Z,0
2016-08-10T01:54:31.919Z,0
2016-08-10T01:55:31.923Z,0
2016-08-10T01:56:31.198Z,0
2016-08-10T01:57:31.191Z,0
2016-08-10T01:58:31.202Z,0
2016-08-10T01:59:31.911Z,0
2016-08-10T02:00:31.196Z,0
2016-08-10T02:01:30.474Z,0
2016-08-10T02:02:30.471Z,0
2016-08-10T02:03:31.192Z,0
2016-08-10T02:04:31.931Z,0
2016-08-10T02:05:31.911Z,0
2016-08-10T02:06:32.059Z,0
2016-08-10T02:07:30.471Z,0
2016-08-10T02:08:31.923Z,0
2016-08-10T02:09:30.472Z,0
2016-08-10T02:10:31.916Z,0
2016-08-10T02:11:30.475Z,0
2016-08-10T02:12:31.193Z,0
2016-08-10T02:13:29.744Z,0
2016-08-10T02:14:31.915Z,0
2016-08-10T02:15:31.183Z,0
2016-08-10T02:16:31.187Z,0
2016-08-10T02:17:31.180Z,0
2016-08-10T02:18:31.172Z,0
2016-08-10T02:19:31.184Z,0
2016-08-10T02:20:31.179Z,0
2016-08-10T02:21:31.179Z,0
2016-08-10T02:22:31.903Z,0
2016-08-10T02:23:31.183Z,0
2016-08-10T02:24:31.180Z,0
2016-08-10T02:25:30.456Z,0
2016-08-10T02:26:30.472Z,0
2016-08-10T02:27:31.176Z,0
2016-08-10T02:28:31.179Z,0
2016-08-10T02:29:31.176Z,0
2016-08-10T02:30:31.164Z,0
2016-08-10T02:31:31.888Z,0
2016-08-10T02:32:31.172Z,0
2016-08-10T02:33:31.887Z,0
2016-08-10T02:34:31.172Z,0
2016-08-10T02:35:31.888Z,0
2016-08-10T02:36:31.176Z,0
2016-08-10T02:37:31.164Z,0
2016-08-10T02:38:31.885Z,0
2016-08-10T02:39:31.884Z,0
2016-08-10T02:40:30.452Z,0
2016-08-10T02:41:31.888Z,0
2016-08-10T02:42:30.447Z,0
2016-08-10T02:43:31.893Z,0
2016-08-10T02:44:31.900Z,0
2016-08-10T02:45:30.437Z,0
2016-08-10T02:46:31.889Z,0
2016-08-10T02:47:30.437Z,0
2016-08-10T02:48:31.157Z,0
2016-08-10T02:49:31.888Z,0
2016-08-10T02:50:31.161Z,0
2016-08-10T02:51:31.157Z,0
2016-08-10T02:52:31.156Z,0
2016-08-10T02:53:31.160Z,0
2016-08-10T02:54:31.145Z,0
2016-08-10T02:55:31.878Z,0
2016-08-10T02:56:31.149Z,0
2016-08-10T02:57:31.869Z,0
2016-08-10T02:58:29.716Z,0
2016-08-10T02:59:31.869Z,0
2016-08-10T03:00:29.716Z,0
2016-08-10T03:01:31.885Z,0
2016-08-10T03:02:30.437Z,0
2016-08-10T03:03:31.153Z,16
2016-08-10T03:04:31.866Z,16
2016-08-10T03:05:31.865Z,16
2016-08-10T03:06:31.150Z,0
2016-08-10T03:07:31.865Z,0
2016-08-10T03:08:30.429Z,0
2016-08-10T03:09:31.869Z,0
2016-08-10T03:10:31.865Z,0
2016-08-10T03:11:31.877Z,0
2016-08-10T03:12:31.861Z,0
2016-08-10T03:13:31.858Z,0
2016-08-10T03:14:31.149Z,0
2016-08-10T03:15:31.869Z,0
2016-08-10T03:16:31.873Z,0
2016-08-10T03:17:31.141Z,0
2016-08-10T03:18:31.858Z,0
2016-08-10T03:19:30.426Z,0
2016-08-10T03:20:31.133Z,0
2016-08-10T03:21:31.141Z,0
2016-08-10T03:22:31.857Z,0
2016-08-10T03:23:30.137Z,0
2016-08-10T03:24:31.857Z,0
2016-08-10T03:25:31.134Z,0
2016-08-10T03:26:31.848Z,0
2016-08-10T03:27:31.861Z,0
2016-08-10T03:28:30.417Z,0
2016-08-10T03:29:31.873Z,0
2016-08-10T03:30:31.856Z,0
2016-08-10T03:31:31.126Z,0
2016-08-10T03:32:30.413Z,0
2016-08-10T03:33:31.142Z,0
2016-08-10T03:34:31.126Z,0
2016-08-10T03:35:31.838Z,0
2016-08-10T03:36:31.130Z,0
2016-08-10T03:37:30.402Z,0
2016-08-10T03:38:30.238Z,0
2016-08-10T03:39:31.131Z,0
2016-08-10T03:40:31.842Z,0
2016-08-10T03:41:30.409Z,0
2016-08-10T03:42:30.398Z,0
2016-08-10T03:43:31.849Z,0
2016-08-10T03:44:31.122Z,0
2016-08-10T03:45:31.118Z,0
2016-08-10T03:46:31.117Z,0
2016-08-10T03:47:31.838Z,0
2016-08-10T03:48:31.842Z,0
2016-08-10T03:49:31.838Z,4
2016-08-10T03:50:31.118Z,4
2016-08-10T03:51:31.842Z,4
2016-08-10T03:52:31.117Z,4
2016-08-10T03:53:30.021Z,4
2016-08-10T03:54:31.105Z,8
2016-08-10T03:55:31.835Z,8
2016-08-10T03:56:31.838Z,8
2016-08-10T03:57:31.123Z,12
2016-08-10T03:58:29.682Z,12
2016-08-10T03:59:31.825Z,12
2016-08-10T04:00:30.397Z,16
2016-08-10T04:01:31.119Z,24
2016-08-10T04:02:31.118Z,24
2016-08-10T04:03:30.391Z,24
2016-08-10T04:04:31.114Z,24
2016-08-10T04:05:31.106Z,24
2016-08-10T04:06:31.923Z,44
2016-08-10T04:07:31.107Z,52
2016-08-10T04:08:30.214Z,40
2016-08-10T04:09:31.108Z,40
2016-08-10T04:10:31.098Z,44
2016-08-10T04:11:31.106Z,68
2016-08-10T04:12:31.819Z,64
2016-08-10T04:13:31.827Z,52
2016-08-10T04:14:31.098Z,56
2016-08-10T04:15:31.098Z,64
2016-08-10T04:16:30.374Z,68
2016-08-10T04:17:31.811Z,72
2016-08-10T04:18:31.099Z,68
2016-08-10T04:19:30.375Z,76
2016-08-10T04:20:30.378Z,88
2016-08-10T04:21:31.823Z,96
2016-08-10T04:22:31.819Z,92
2016-08-10T04:24:31.107Z,104
2016-08-10T04:25:30.375Z,108
2016-08-10T04:26:31.099Z,116
2016-08-10T04:27:31.100Z,128
2016-08-10T04:28:31.110Z,140
2016-08-10T04:29:31.827Z,148
2016-08-10T04:30:31.824Z,148
2016-08-10T04:31:31.091Z,152
2016-08-10T04:32:31.816Z,152
2016-08-10T04:33:31.803Z,152
2016-08-10T04:34:30.380Z,152
2016-08-10T04:35:31.084Z,156
2016-08-10T04:36:30.371Z,168
2016-08-10T04:37:31.813Z,212
2016-08-10T04:39:31.088Z,252
2016-08-10T04:40:31.808Z,252
2016-08-10T04:41:31.819Z,248
2016-08-10T04:42:31.076Z,244
2016-08-10T04:43:31.093Z,244
2016-08-10T04:44:31.810Z,240
2016-08-10T04:45:31.088Z,244
2016-08-10T04:46:31.087Z,252
2016-08-10T04:47:31.088Z,268
2016-08-10T04:48:31.084Z,296
2016-08-10T04:49:31.808Z,328
2016-08-10T04:50:31.796Z,372
2016-08-10T04:51:31.797Z,424
2016-08-10T04:52:31.076Z,472
2016-08-10T04:53:31.793Z,512
2016-08-10T04:54:30.353Z,556
2016-08-10T04:55:31.069Z,584
2016-08-10T04:56:31.064Z,592
2016-08-10T04:57:31.085Z,580
2016-08-10T04:58:31.793Z,560
2016-08-10T04:59:29.633Z,560
2016-08-10T05:00:31.800Z,568
2016-08-10T05:01:31.073Z,592
2016-08-10T05:02:31.074Z,620
2016-08-10T05:03:31.789Z,684
2016-08-10T05:04:31.068Z,780
2016-08-10T05:05:31.796Z,888
2016-08-10T05:06:31.064Z,972
2016-08-10T05:07:31.788Z,1060
2016-08-10T05:09:31.069Z,1188
2016-08-10T05:10:31.069Z,1200
2016-08-10T05:11:31.070Z,1176
2016-08-10T05:12:31.777Z,1108
2016-08-10T05:13:31.064Z,1024
2016-08-10T05:14:31.781Z,972
2016-08-10T05:15:31.069Z,944
2016-08-10T05:16:31.785Z,912
2016-08-10T05:17:31.783Z,860
2016-08-10T05:18:31.789Z,816
2016-08-10T05:19:31.776Z,776
2016-08-10T05:20:31.782Z,736
2016-08-10T05:21:31.069Z,724
2016-08-10T05:22:31.781Z,708
2016-08-10T05:23:31.778Z,688
2016-08-10T05:24:31.062Z,676
2016-08-10T05:25:31.770Z,672
2016-08-10T05:26:31.782Z,676
2016-08-10T05:27:30.337Z,688
2016-08-10T05:28:31.053Z,716
2016-08-10T05:29:31.057Z,744
2016-08-10T05:30:31.765Z,780
2016-08-10T05:31:31.778Z,808
2016-08-10T05:32:30.321Z,800
2016-08-10T05:33:31.785Z,784
2016-08-10T05:34:31.061Z,760
2016-08-10T05:35:30.341Z,736
2016-08-10T05:36:31.827Z,732
2016-08-10T05:37:31.774Z,736
2016-08-10T05:38:31.053Z,752
2016-08-10T05:39:31.055Z,776
2016-08-10T05:40:31.050Z,796
2016-08-10T05:41:30.322Z,824
2016-08-10T05:42:31.155Z,872
2016-08-10T05:43:31.758Z,928
2016-08-10T05:44:31.058Z,1000
2016-08-10T05:45:30.337Z,1096
2016-08-10T05:46:30.319Z,1164
2016-08-10T05:47:31.046Z,1212
2016-08-10T05:48:31.797Z,1232
2016-08-10T05:49:30.327Z,1224
2016-08-10T05:50:30.326Z,1224
2016-08-10T05:51:31.762Z,1300
2016-08-10T05:52:31.778Z,1444
2016-08-10T05:53:31.043Z,1620
2016-08-10T05:54:31.046Z,1892
2016-08-10T05:55:31.042Z,2032
2016-08-10T05:56:31.043Z,2104
2016-08-10T05:57:31.042Z,2228
2016-08-10T05:58:31.043Z,2348
2016-08-10T05:59:31.042Z,2384
2016-08-10T06:00:31.779Z,2456
2016-08-10T06:01:31.034Z,2432
2016-08-10T06:02:31.042Z,2376
2016-08-10T06:03:31.042Z,2448
2016-08-10T06:04:31.030Z,2584
2016-08-10T06:05:31.042Z,2716
2016-08-10T06:06:31.090Z,2688
2016-08-10T06:07:31.043Z,2648
2016-08-10T06:08:31.754Z,2596
2016-08-10T06:09:31.758Z,2364
2016-08-10T06:10:31.031Z,2160
2016-08-10T06:11:31.766Z,2068
2016-08-10T06:12:31.753Z,2056
2016-08-10T06:13:30.314Z,2140
2016-08-10T06:14:31.763Z,2392
2016-08-10T06:15:30.327Z,2596
2016-08-10T06:16:30.307Z,2576
2016-08-10T06:17:31.043Z,2452
2016-08-10T06:18:30.315Z,2364
2016-08-10T06:19:31.051Z,2384
2016-08-10T06:20:31.762Z,2612
2016-08-10T06:21:31.043Z,2680
2016-08-10T06:22:31.766Z,2724
2016-08-10T06:23:31.037Z,2892
2016-08-10T06:24:31.039Z,3196
2016-08-10T06:25:31.759Z,3360
2016-08-10T06:26:30.311Z,3520
2016-08-10T06:27:31.755Z,3576
2016-08-10T06:28:31.956Z,3456
2016-08-10T06:29:30.315Z,3240
2016-08-10T06:30:31.755Z,3160
2016-08-10T06:31:31.047Z,3124
2016-08-10T06:32:31.044Z,3088
2016-08-10T06:33:31.763Z,3088
2016-08-10T06:34:31.752Z,3060
2016-08-10T06:35:30.311Z,2988
2016-08-10T06:36:31.767Z,2948
2016-08-10T06:37:31.035Z,3004
2016-08-10T06:38:31.032Z,3068
2016-08-10T06:39:31.764Z,3096
2016-08-10T06:40:31.040Z,3092
2016-08-10T06:41:30.309Z,3184
2016-08-10T06:42:31.752Z,3408
2016-08-10T06:43:30.308Z,3572
2016-08-10T06:44:31.036Z,3640
2016-08-10T06:45:31.056Z,3720
2016-08-10T06:46:29.599Z,3776
2016-08-10T06:47:31.760Z,3844
2016-08-10T06:48:30.319Z,3744
2016-08-10T06:49:31.764Z,3608
2016-08-10T06:50:31.037Z,3540
2016-08-10T06:51:31.764Z,3392
2016-08-10T06:52:31.040Z,3236
2016-08-10T06:53:31.044Z,3104
2016-08-10T06:54:30.313Z,2960
2016-08-10T06:55:31.766Z,2808
2016-08-10T06:56:31.044Z,2676
2016-08-10T06:57:31.764Z,2576
2016-08-10T06:58:31.768Z,2456
2016-08-10T06:59:31.765Z,2388
2016-08-10T07:00:31.036Z,2420
2016-08-10T07:01:31.048Z,2440
2016-08-10T07:02:31.040Z,2444
2016-08-10T07:03:31.032Z,2496
2016-08-10T07:04:31.757Z,2568
2016-08-10T07:05:30.320Z,2704
2016-08-10T07:06:31.764Z,2796
2016-08-10T07:07:31.045Z,2660
2016-08-10T07:08:31.049Z,2392
2016-08-10T07:09:31.085Z,2152
2016-08-10T07:10:31.052Z,1924
2016-08-10T07:11:31.033Z,1764
2016-08-10T07:12:31.041Z,1696
2016-08-10T07:13:31.053Z,1728
2016-08-10T07:14:31.772Z,1816
2016-08-10T07:15:31.041Z,1884
2016-08-10T07:16:31.765Z,2000
2016-08-10T07:17:31.049Z,2236
2016-08-10T07:18:31.762Z,2596
2016-08-10T07:19:31.068Z,3004
2016-08-10T07:20:31.042Z,3424
2016-08-10T07:21:31.046Z,3852
2016-08-10T07:22:30.326Z,4188
2016-08-10T07:23:30.329Z,4384
2016-08-10T07:24:29.949Z,4312
2016-08-10T07:25:30.330Z,4120
2016-08-10T07:26:31.048Z,4032
2016-08-10T07:27:31.051Z,4172
2016-08-10T07:28:31.046Z,4176
2016-08-10T07:29:30.333Z,4124
2016-08-10T07:30:30.326Z,4100
2016-08-10T07:31:31.065Z,4044
2016-08-10T07:32:31.058Z,3976
2016-08-10T07:33:31.770Z,3948
2016-08-10T07:34:31.047Z,3892
2016-08-10T07:35:31.062Z,3864
2016-08-10T07:36:31.806Z,3812
2016-08-10T07:37:31.778Z,3824
2016-08-10T07:38:31.064Z,3880
2016-08-10T07:39:30.130Z,3720
2016-08-10T07:40:30.351Z,3528
2016-08-10T07:41:31.067Z,3468
2016-08-10T07:42:31.775Z,3664
2016-08-10T07:43:30.347Z,4012
2016-08-10T07:44:31.783Z,4436
2016-08-10T07:45:31.058Z,4796
2016-08-10T07:46:31.066Z,5196
2016-08-10T07:47:31.055Z,5516
2016-08-10T07:48:31.066Z,5516
2016-08-10T07:49:30.334Z,5204
2016-08-10T07:50:31.782Z,5008
2016-08-10T07:51:31.798Z,5024
2016-08-10T07:52:31.067Z,4948
2016-08-10T07:53:31.783Z,4588
2016-08-10T07:55:31.783Z,3968
2016-08-10T07:56:31.784Z,3912
2016-08-10T07:57:30.350Z,3872
2016-08-10T07:58:31.802Z,3784
2016-08-10T07:59:31.786Z,3644
2016-08-10T08:00:31.070Z,3512
2016-08-10T08:01:31.791Z,3388
2016-08-10T08:02:31.079Z,3268
2016-08-10T08:03:30.347Z,3136
2016-08-10T08:04:31.073Z,2996
2016-08-10T08:05:31.070Z,2956
2016-08-10T08:06:31.175Z,3048
2016-08-10T08:07:31.810Z,3128
2016-08-10T08:08:31.079Z,3044
2016-08-10T08:09:30.138Z,2908
2016-08-10T08:10:31.079Z,2816
2016-08-10T08:11:31.079Z,2828
2016-08-10T08:12:31.807Z,2948
2016-08-10T08:13:29.639Z,3136
2016-08-10T08:14:31.807Z,3416
2016-08-10T08:15:31.806Z,3756
2016-08-10T08:16:29.641Z,4152
2016-08-10T08:17:31.795Z,4576
2016-08-10T08:18:31.090Z,4916
2016-08-10T08:19:31.823Z,5336
2016-08-10T08:20:31.811Z,5968
2016-08-10T08:21:31.087Z,6616
2016-08-10T08:22:31.816Z,7280
2016-08-10T08:23:31.087Z,7988
2016-08-10T08:24:29.979Z,8228
2016-08-10T08:25:31.092Z,8464
2016-08-10T08:26:31.823Z,8752
2016-08-10T08:27:31.094Z,9064
2016-08-10T08:28:30.371Z,9440
2016-08-10T08:29:31.100Z,10240
2016-08-10T08:30:31.823Z,10904
2016-08-10T08:31:30.403Z,11232
2016-08-10T08:32:31.812Z,10612
2016-08-10T08:33:31.095Z,10328
2016-08-10T08:34:31.831Z,10004
2016-08-10T08:35:31.828Z,10684
2016-08-10T08:36:30.387Z,10464
2016-08-10T08:37:31.108Z,10140
2016-08-10T08:38:31.824Z,10516
2016-08-10T08:39:30.011Z,11120
2016-08-10T08:40:31.831Z,11948
2016-08-10T08:41:31.839Z,11800
2016-08-10T08:42:31.114Z,11204
2016-08-10T08:43:31.832Z,11696
2016-08-10T08:44:31.115Z,11816
2016-08-10T08:45:31.116Z,12108
2016-08-10T08:46:31.116Z,12028
2016-08-10T08:47:30.412Z,11952
2016-08-10T08:48:31.860Z,12348
2016-08-10T08:49:30.427Z,12816
2016-08-10T08:50:30.411Z,13936
2016-08-10T08:51:31.147Z,13564
2016-08-10T08:52:31.152Z,13600
2016-08-10T08:53:30.424Z,11116
2016-08-10T08:55:31.144Z,8884
2016-08-10T08:56:31.145Z,6896
2016-08-10T08:57:31.155Z,5244
2016-08-10T08:58:30.436Z,4496
2016-08-10T08:59:30.432Z,4132
2016-08-10T09:00:31.157Z,3976
2016-08-10T09:01:31.168Z,3948
2016-08-10T09:02:31.889Z,3880
2016-08-10T09:03:30.440Z,3832
2016-08-10T09:04:31.885Z,3712
2016-08-10T09:05:31.184Z,3568
2016-08-10T09:06:31.908Z,3448
2016-08-10T09:07:31.904Z,3376
2016-08-10T09:08:31.904Z,3336
2016-08-10T09:10:31.908Z,3444
2016-08-10T09:11:31.913Z,3500
2016-08-10T09:12:31.917Z,3548
2016-08-10T09:13:31.196Z,3592
2016-08-10T09:14:31.196Z,3636
2016-08-10T09:15:31.204Z,3680
2016-08-10T09:16:30.473Z,3736
2016-08-10T09:17:30.488Z,3824
2016-08-10T09:18:31.204Z,3960
2016-08-10T09:19:29.765Z,4088
2016-08-10T09:20:31.941Z,4172
2016-08-10T09:21:31.212Z,4212
2016-08-10T09:22:31.217Z,4216
2016-08-10T09:23:31.929Z,4192
2016-08-10T09:25:31.209Z,4148
2016-08-10T09:26:31.961Z,4292
2016-08-10T09:27:31.957Z,4604
2016-08-10T09:28:31.229Z,5076
2016-08-10T09:29:31.234Z,5568
2016-08-10T09:30:31.237Z,5740
2016-08-10T09:31:30.521Z,5600
2016-08-10T09:32:31.237Z,5492
2016-08-10T09:33:31.966Z,5416
2016-08-10T09:34:31.242Z,4992
2016-08-10T09:35:29.802Z,4428
2016-08-10T09:36:31.962Z,3768
2016-08-10T09:37:31.962Z,3208
2016-08-10T09:38:31.258Z,2752
2016-08-10T09:39:31.249Z,2428
2016-08-10T09:40:31.265Z,2272
2016-08-10T09:41:32.002Z,2280
2016-08-10T09:42:31.266Z,2416
2016-08-10T09:43:30.534Z,2604
2016-08-10T09:44:30.553Z,2760
2016-08-10T09:45:30.542Z,2988
2016-08-10T09:46:30.539Z,3332
2016-08-10T09:47:31.265Z,3752
2016-08-10T09:48:30.553Z,4192
2016-08-10T09:49:31.262Z,4760
2016-08-10T09:50:31.345Z,5228
2016-08-10T09:51:32.007Z,5608
2016-08-10T09:52:32.018Z,5932
2016-08-10T09:53:32.014Z,6044
2016-08-10T09:54:32.011Z,6136
2016-08-10T09:55:30.566Z,6404
2016-08-10T09:56:32.011Z,6652
2016-08-10T09:57:31.297Z,6744
2016-08-10T09:58:31.286Z,6676
2016-08-10T09:59:31.290Z,6736
2016-08-10T10:00:32.018Z,6764
2016-08-10T10:01:31.299Z,6712
2016-08-10T10:02:30.583Z,6472
2016-08-10T10:03:31.311Z,6240
2016-08-10T10:04:31.303Z,5996
2016-08-10T10:05:30.591Z,5788
2016-08-10T10:06:32.174Z,5636
2016-08-10T10:07:32.030Z,5528
2016-08-10T10:08:31.311Z,5420
2016-08-10T10:09:31.320Z,5268
2016-08-10T10:10:30.599Z,5252
2016-08-10T10:11:30.598Z,5332
2016-08-10T10:12:30.594Z,5456
2016-08-10T10:13:31.323Z,5468
2016-08-10T10:14:30.603Z,5308
2016-08-10T10:15:32.054Z,5172
2016-08-10T10:16:30.618Z,5156
2016-08-10T10:17:32.063Z,5164
2016-08-10T10:18:31.339Z,5240
2016-08-10T10:19:32.055Z,5404
2016-08-10T10:20:32.083Z,5840
2016-08-10T10:21:32.062Z,6028
2016-08-10T10:22:32.075Z,5980
2016-08-10T10:23:31.343Z,5696
2016-08-10T10:24:32.078Z,5216
2016-08-10T10:25:30.623Z,5256
2016-08-10T10:26:31.363Z,5428
2016-08-10T10:27:31.354Z,5444
2016-08-10T10:28:32.075Z,5488
2016-08-10T10:29:32.079Z,5524
2016-08-10T10:30:30.632Z,5736
2016-08-10T10:31:31.359Z,5992
2016-08-10T10:32:32.076Z,6172
2016-08-10T10:33:32.091Z,6396
2016-08-10T10:34:32.094Z,6776
2016-08-10T10:35:30.663Z,7068
2016-08-10T10:36:32.100Z,7128
2016-08-10T10:37:32.123Z,7212
2016-08-10T10:38:31.377Z,6596
2016-08-10T10:39:30.659Z,6180
2016-08-10T10:40:30.655Z,6540
2016-08-10T10:41:31.383Z,6680
2016-08-10T10:42:30.671Z,6556
2016-08-10T10:43:30.664Z,6584
2016-08-10T10:44:30.677Z,6172
2016-08-10T10:45:32.116Z,5336
2016-08-10T10:46:29.948Z,5048
2016-08-10T10:47:31.399Z,4668
2016-08-10T10:48:31.408Z,4344
2016-08-10T10:49:31.405Z,3928
2016-08-10T10:50:31.408Z,3536
2016-08-10T10:51:31.404Z,3356
2016-08-10T10:52:31.415Z,3140
2016-08-10T10:53:31.412Z,2928
2016-08-10T10:54:31.416Z,2712
2016-08-10T10:55:31.416Z,2544
2016-08-10T10:56:31.417Z,2396
2016-08-10T10:57:32.140Z,2356
2016-08-10T10:58:32.144Z,2568
2016-08-10T10:59:31.447Z,2876
2016-08-10T11:00:32.160Z,3404
2016-08-10T11:01:31.449Z,4196
2016-08-10T11:02:31.442Z,4900
2016-08-10T11:03:30.708Z,5404
2016-08-10T11:04:31.440Z,5708
2016-08-10T11:05:32.164Z,6020
2016-08-10T11:06:31.440Z,6100
2016-08-10T11:07:30.721Z,5548
2016-08-10T11:08:32.178Z,4752
2016-08-10T11:09:31.449Z,4096
2016-08-10T11:10:30.729Z,3452
2016-08-10T11:11:31.452Z,3244
2016-08-10T11:12:32.193Z,3376
2016-08-10T11:13:32.172Z,3756
2016-08-10T11:14:31.453Z,4120
2016-08-10T11:15:30.740Z,4372
2016-08-10T11:16:30.741Z,4700
2016-08-10T11:17:31.456Z,5152
2016-08-10T11:18:30.749Z,5316
2016-08-10T11:19:31.465Z,5248
2016-08-10T11:20:31.485Z,5236
2016-08-10T11:21:32.189Z,5260
2016-08-10T11:22:31.469Z,4704
2016-08-10T11:23:31.470Z,3820
2016-08-10T11:24:30.750Z,3308
2016-08-10T11:25:30.757Z,3208
2016-08-10T11:26:31.482Z,3128
2016-08-10T11:27:30.761Z,3312
2016-08-10T11:28:32.212Z,3432
2016-08-10T11:29:31.489Z,3288
2016-08-10T11:30:31.482Z,3092
2016-08-10T11:31:31.485Z,2888
2016-08-10T11:32:31.481Z,2968
2016-08-10T11:33:31.498Z,3020
2016-08-10T11:34:32.219Z,2696
2016-08-10T11:35:30.782Z,2316
2016-08-10T11:36:32.221Z,2116
2016-08-10T11:37:31.513Z,2000
2016-08-10T11:38:31.505Z,1928
2016-08-10T11:39:31.506Z,2160
2016-08-10T11:40:31.521Z,2644
2016-08-10T11:41:31.507Z,3268
2016-08-10T11:42:32.233Z,3912
2016-08-10T11:43:30.792Z,4468
2016-08-10T11:44:31.517Z,4764
2016-08-10T11:45:32.248Z,4880
2016-08-10T11:46:31.517Z,4832
2016-08-10T11:47:32.242Z,4340
2016-08-10T11:48:31.518Z,3888
2016-08-10T11:49:31.521Z,3872
2016-08-10T11:50:32.250Z,3852
2016-08-10T11:51:32.249Z,3620
2016-08-10T11:52:31.897Z,3260
2016-08-10T11:53:31.534Z,2668
2016-08-10T11:54:32.277Z,2316
2016-08-10T11:55:31.537Z,2140
2016-08-10T11:56:31.542Z,1880
2016-08-10T11:57:31.541Z,1624
2016-08-10T11:58:32.258Z,1460
2016-08-10T11:59:31.541Z,1372
2016-08-10T12:00:32.270Z,1332
2016-08-10T12:01:31.550Z,1320
2016-08-10T12:02:32.274Z,1384
2016-08-10T12:03:31.548Z,1568
2016-08-10T12:04:32.273Z,1776
2016-08-10T12:05:32.270Z,1924
2016-08-10T12:06:31.610Z,1964
2016-08-10T12:07:31.554Z,2012
2016-08-10T12:08:30.846Z,2144
2016-08-10T12:09:31.563Z,2292
2016-08-10T12:10:31.362Z,2380
2016-08-10T12:11:30.858Z,2508
2016-08-10T12:12:31.566Z,2644
2016-08-10T12:13:31.653Z,2792
2016-08-10T12:14:30.850Z,2920
2016-08-10T12:15:31.570Z,3004
2016-08-10T12:16:31.582Z,3012
2016-08-10T12:17:31.565Z,2976
2016-08-10T12:18:31.574Z,2948
2016-08-10T12:19:31.571Z,2960
2016-08-10T12:20:31.578Z,3052
2016-08-10T12:21:31.575Z,3244
2016-08-10T12:22:32.299Z,3484
2016-08-10T12:23:31.590Z,3640
2016-08-10T12:24:30.866Z,3644
2016-08-10T12:25:31.114Z,3628
2016-08-10T12:26:31.591Z,3672
2016-08-10T12:27:31.591Z,3768
2016-08-10T12:28:32.307Z,3920
2016-08-10T12:29:32.319Z,4200
2016-08-10T12:30:32.327Z,4648
2016-08-10T12:31:31.591Z,5024
2016-08-10T12:32:32.303Z,5280
2016-08-10T12:33:32.311Z,5356
2016-08-10T12:34:30.872Z,5236
2016-08-10T12:35:31.599Z,4988
2016-08-10T12:36:31.607Z,4648
2016-08-10T12:37:31.606Z,4384
2016-08-10T12:38:31.604Z,4284
2016-08-10T12:39:31.603Z,4352
2016-08-10T12:40:30.507Z,4492
2016-08-10T12:41:30.887Z,4608
2016-08-10T12:42:31.603Z,4640
2016-08-10T12:43:31.615Z,4608
2016-08-10T12:44:31.611Z,4528
2016-08-10T12:45:32.323Z,4388
2016-08-10T12:46:32.347Z,4244
2016-08-10T12:47:31.614Z,4120
2016-08-10T12:48:32.340Z,3972
2016-08-10T12:49:31.616Z,3836
2016-08-10T12:50:31.654Z,3680
2016-08-10T12:51:32.343Z,3508
2016-08-10T12:52:31.620Z,3308
2016-08-10T12:53:31.627Z,3088
2016-08-10T12:54:31.641Z,2876
2016-08-10T12:55:30.524Z,2692
2016-08-10T12:56:30.909Z,2512
2016-08-10T12:57:31.632Z,2372
2016-08-10T12:58:30.914Z,2284
2016-08-10T12:59:31.648Z,2236
2016-08-10T13:00:31.633Z,2256
2016-08-10T13:01:30.916Z,2332
2016-08-10T13:02:32.368Z,2416
2016-08-10T13:03:32.371Z,2472
2016-08-10T13:04:32.368Z,2548
2016-08-10T13:05:31.656Z,2612
2016-08-10T13:06:30.919Z,2672
2016-08-10T13:07:31.635Z,2712
2016-08-10T13:08:32.384Z,2724
2016-08-10T13:09:31.644Z,2732
2016-08-10T13:10:30.536Z,2732
2016-08-10T13:11:31.644Z,2756
2016-08-10T13:12:31.652Z,2804
2016-08-10T13:13:31.656Z,2864
2016-08-10T13:14:30.936Z,2928
2016-08-10T13:15:31.659Z,2972
2016-08-10T13:16:30.940Z,3004
2016-08-10T13:17:31.649Z,3016
2016-08-10T13:18:31.665Z,3024
2016-08-10T13:19:30.929Z,3044
2016-08-10T13:20:32.385Z,3092
2016-08-10T13:21:31.677Z,3192
2016-08-10T13:22:32.393Z,3316
2016-08-10T13:23:31.668Z,3428
2016-08-10T13:24:32.394Z,3560
2016-08-10T13:25:30.569Z,3720
2016-08-10T13:26:31.673Z,3968
2016-08-10T13:27:32.401Z,4336
2016-08-10T13:28:31.666Z,4712
2016-08-10T13:29:32.397Z,5224
2016-08-10T13:30:30.961Z,5720
2016-08-10T13:31:31.686Z,6084
2016-08-10T13:32:32.397Z,5880
2016-08-10T13:33:31.680Z,5640
2016-08-10T13:34:31.685Z,5096
2016-08-10T13:35:30.961Z,4392
2016-08-10T13:36:31.689Z,3876
2016-08-10T13:37:31.694Z,3572
2016-08-10T13:38:31.697Z,3224
2016-08-10T13:39:32.412Z,3124
2016-08-10T13:41:30.974Z,2660
2016-08-10T13:42:32.409Z,2452
2016-08-10T13:43:31.693Z,2484
2016-08-10T13:44:31.699Z,2464
2016-08-10T13:45:32.417Z,2520
2016-08-10T13:46:31.710Z,2672
2016-08-10T13:47:32.409Z,2844
2016-08-10T13:48:32.430Z,3108
2016-08-10T13:49:31.697Z,3364
2016-08-10T13:50:31.706Z,3728
2016-08-10T13:51:31.698Z,4020
2016-08-10T13:52:32.430Z,4140
2016-08-10T13:53:31.710Z,4260
2016-08-10T13:54:32.439Z,4500
2016-08-10T13:56:30.994Z,4696